Time;durP1;ratioP1;P1;durP2;ratioP2;P2;SDS_P1;SDS_P2;PMS_P1;PMS_P2;Temp;Humidity;BMP_temperature;BMP_pressure;BME280_temperature;BME280_humidity;BME280_pressure;Samples;Min_cycle;Max_cycle;Signal;HPM_P1;HPM_P2
2023/01/23 00:01:04;;;;;;;22.30;11.90;;;0.10;99.90;;;;;;5073721;28;20420;-83
2023/01/23 00:03:30;;;;;;;22.40;11.75;;;0.20;99.90;;;;;;5073695;28;20020;-83
2023/01/23 00:06:01;;;;;;;22.77;11.43;;;0.10;99.90;;;;;;5073543;28;20359;-83
2023/01/23 00:08:28;;;;;;;21.48;10.90;;;0.10;99.90;;;;;;5073378;28;20028;-83
2023/01/23 00:10:54;;;;;;;22.00;11.95;;;0.10;99.90;;;;;;5073520;28;20082;-83
2023/01/23 00:13:20;;;;;;;22.95;11.98;;;0.10;99.90;;;;;;5073425;28;20024;-83
2023/01/23 00:15:46;;;;;;;20.63;11.45;;;0.20;99.90;;;;;;5073578;28;20035;-83
2023/01/23 00:18:13;;;;;;;21.88;12.30;;;0.20;99.90;;;;;;5076795;28;20040;-84
2023/01/23 00:20:39;;;;;;;21.40;11.80;;;0.20;99.90;;;;;;5093498;28;20044;-83
2023/01/23 00:23:05;;;;;;;25.67;11.93;;;0.10;99.90;;;;;;5093676;28;20035;-85
2023/01/23 00:25:33;;;;;;;22.02;12.32;;;0.10;99.90;;;;;;5094808;28;20373;-82
2023/01/23 00:27:59;;;;;;;25.98;12.90;;;0.10;99.90;;;;;;5093544;28;20104;-84
2023/01/23 00:30:24;;;;;;;20.90;11.80;;;0.10;99.90;;;;;;5094713;28;20044;-83
2023/01/23 00:32:50;;;;;;;23.48;12.57;;;0.20;99.90;;;;;;5093262;28;20363;-83
2023/01/23 00:35:16;;;;;;;24.05;11.15;;;0.10;99.90;;;;;;5094612;28;20484;-83
2023/01/23 00:37:42;;;;;;;23.13;12.32;;;0.10;99.90;;;;;;5093221;28;20472;-84
2023/01/23 00:40:08;;;;;;;26.52;14.10;;;0.20;99.90;;;;;;5093072;28;20453;-85
2023/01/23 00:42:34;;;;;;;20.60;11.40;;;0.20;99.90;;;;;;5093005;28;20032;-83
2023/01/23 00:45:00;;;;;;;25.80;13.50;;;0.20;99.90;;;;;;5093479;28;20123;-84
2023/01/23 00:47:25;;;;;;;20.42;11.32;;;0.20;99.90;;;;;;5092232;28;20020;-83
2023/01/23 00:49:52;;;;;;;21.92;12.20;;;0.20;99.90;;;;;;5094190;28;20051;-86
2023/01/23 00:52:18;;;;;;;23.70;13.60;;;0.20;99.90;;;;;;5094582;28;20465;-82
2023/01/23 00:54:44;;;;;;;20.85;12.75;;;0.20;99.90;;;;;;5092973;28;20020;-83
2023/01/23 00:57:10;;;;;;;23.88;12.02;;;0.20;99.90;;;;;;5093217;28;20363;-83
2023/01/23 00:59:35;;;;;;;20.08;10.60;;;0.20;99.90;;;;;;5094015;28;20060;-83
2023/01/23 01:02:01;;;;;;;24.17;11.30;;;0.20;99.90;;;;;;5094427;28;20025;-83
2023/01/23 01:04:26;;;;;;;25.55;12.40;;;0.20;99.90;;;;;;5092763;28;20148;-83
2023/01/23 01:06:52;;;;;;;25.15;13.30;;;0.20;99.90;;;;;;5092811;28;20078;-82
2023/01/23 01:09:17;;;;;;;25.98;14.05;;;0.20;99.90;;;;;;5093909;28;20028;-81
2023/01/23 01:11:43;;;;;;;27.10;13.15;;;0.30;99.90;;;;;;5092718;28;20167;-81
2023/01/23 01:14:09;;;;;;;24.33;12.85;;;0.20;99.90;;;;;;5093781;28;20023;-81
2023/01/23 01:16:34;;;;;;;26.98;13.75;;;0.20;99.90;;;;;;5094025;28;20069;-81
2023/01/23 01:19:00;;;;;;;27.50;14.57;;;0.20;99.90;;;;;;5092305;28;20497;-81
2023/01/23 01:21:25;;;;;;;26.27;13.10;;;0.20;99.90;;;;;;5093862;28;20024;-81
2023/01/23 01:23:51;;;;;;;26.17;14.43;;;0.20;99.90;;;;;;5093643;28;20023;-82
2023/01/23 01:26:17;;;;;;;27.90;14.35;;;0.20;99.90;;;;;;5092285;28;20096;-83
2023/01/23 01:28:42;;;;;;;26.45;13.95;;;0.20;99.90;;;;;;5093024;28;20119;-82
2023/01/23 01:31:11;;;;;;;25.42;13.60;;;0.20;99.90;;;;;;5093642;28;20099;-82
2023/01/23 01:33:38;;;;;;;25.15;12.23;;;0.20;99.90;;;;;;5093505;28;20032;-83
2023/01/23 01:36:09;;;;;;;29.55;13.48;;;0.20;99.90;;;;;;5093552;28;20107;-82
2023/01/23 01:38:34;;;;;;;27.38;13.55;;;0.10;99.90;;;;;;5093607;28;20036;-82
2023/01/23 01:41:00;;;;;;;26.33;13.45;;;0.20;99.90;;;;;;5093724;28;20036;-82
2023/01/23 01:43:26;;;;;;;22.83;12.73;;;0.20;99.90;;;;;;5093481;28;20028;-82
2023/01/23 01:46:10;;;;;;;26.63;13.98;;;0.20;99.90;;;;;;5093563;28;20024;-82
2023/01/23 01:48:59;;;;;;;23.25;12.35;;;0.20;99.90;;;;;;5093666;28;20070;-82
2023/01/23 01:51:44;;;;;;;28.20;12.30;;;0.20;99.90;;;;;;5093655;28;20076;-82
2023/01/23 01:54:35;;;;;;;31.83;13.05;;;0.20;99.90;;;;;;5093695;28;20059;-83
2023/01/23 01:57:10;;;;;;;24.25;14.13;;;0.20;99.90;;;;;;5092496;28;20119;-83
2023/01/23 01:59:43;;;;;;;21.17;11.00;;;0.10;99.90;;;;;;5095543;28;20067;-83
2023/01/23 02:02:12;;;;;;;26.17;12.43;;;0.20;99.90;;;;;;5097544;28;20020;-83
2023/01/23 02:04:44;;;;;;;26.63;12.57;;;0.10;99.90;;;;;;5097512;28;20377;-82
2023/01/23 02:07:38;;;;;;;29.08;12.43;;;0.20;99.90;;;;;;5097483;28;20035;-82
2023/01/23 02:10:06;;;;;;;25.05;12.32;;;0.20;99.90;;;;;;5096126;28;20115;-83
2023/01/23 02:12:33;;;;;;;23.55;13.38;;;0.20;99.90;;;;;;5097394;28;20016;-82
2023/01/23 02:15:00;;;;;;;21.98;10.05;;;0.20;99.90;;;;;;5095928;28;20048;-81
2023/01/23 02:17:25;;;;;;;24.85;12.15;;;0.20;99.90;;;;;;5097341;28;20026;-80
2023/01/23 02:20:30;;;;;;;29.02;13.85;;;0.20;99.90;;;;;;5095832;28;20134;-80
2023/01/23 02:23:13;;;;;;;24.92;13.77;;;0.20;99.90;;;;;;5038038;28;20035;-81
2023/01/23 02:25:42;;;;;;;26.17;11.93;;;0.20;99.90;;;;;;5038108;28;20047;-80
2023/01/23 02:28:08;;;;;;;23.15;11.23;;;0.20;99.90;;;;;;5071852;28;20393;-80
2023/01/23 02:30:35;;;;;;;18.48;12.45;;;0.20;99.90;;;;;;5095764;28;20028;-81
2023/01/23 02:33:30;;;;;;;21.52;11.18;;;0.20;99.90;;;;;;5095634;28;20013;-81
2023/01/23 02:36:00;;;;;;;20.90;10.90;;;0.20;99.90;;;;;;5095474;28;20054;-84
2023/01/23 02:38:32;;;;;;;20.65;11.38;;;0.20;99.90;;;;;;5096926;28;20024;-86
2023/01/23 02:41:02;;;;;;;20.67;10.77;;;0.20;99.90;;;;;;5056657;28;20021;-84
2023/01/23 02:43:33;;;;;;;18.02;12.07;;;0.20;99.90;;;;;;5055432;28;20078;-85
2023/01/23 02:46:10;;;;;;;22.40;12.00;;;0.20;99.90;;;;;;5055483;28;20048;-83
2023/01/23 02:48:38;;;;;;;20.58;9.93;;;0.20;99.90;;;;;;5056372;28;20299;-83
2023/01/23 02:51:05;;;;;;;21.30;11.20;;;0.20;99.90;;;;;;5055034;28;20112;-83
2023/01/23 02:53:31;;;;;;;16.27;9.82;;;0.30;99.90;;;;;;5055005;28;20023;-83
2023/01/23 02:55:59;;;;;;;21.55;11.68;;;0.30;99.90;;;;;;5055005;28;20846;-83
2023/01/23 03:01:09;;;;;;;12.80;8.68;;;0.30;99.90;;;;;;5056527;28;20090;-83
2023/01/23 03:03:35;;;;;;;16.80;8.65;;;0.30;99.90;;;;;;5056131;28;20021;-85
2023/01/23 03:06:02;;;;;;;18.55;10.55;;;0.30;99.90;;;;;;5054789;28;20025;-85
2023/01/23 03:08:41;;;;;;;16.40;9.88;;;0.30;99.90;;;;;;5054589;28;20471;-83
2023/01/23 03:11:06;;;;;;;15.73;9.80;;;0.30;99.90;;;;;;5053701;28;20498;-84
2023/01/23 03:13:32;;;;;;;13.93;9.52;;;0.30;99.90;;;;;;5054475;28;20055;-82
2023/01/23 03:15:57;;;;;;;13.40;8.57;;;0.30;99.90;;;;;;5054826;28;20067;-82
2023/01/23 03:18:26;;;;;;;14.25;8.98;;;0.40;99.90;;;;;;5062870;28;20048;-82
2023/01/23 03:20:52;;;;;;;16.25;9.07;;;0.40;99.90;;;;;;5078050;28;20016;-84
2023/01/23 03:23:18;;;;;;;13.55;8.93;;;0.40;99.90;;;;;;5077830;28;20393;-82
2023/01/23 03:25:45;;;;;;;14.68;9.65;;;0.40;99.90;;;;;;5077711;28;20026;-82
2023/01/23 03:30:12;;;;;;;19.83;10.68;;;0.40;99.90;;;;;;5095784;28;20052;-82
2023/01/23 03:30:56;;;;;;;16.42;9.50;;;0.40;99.90;;;;;;5095783;28;20032;-82
2023/01/23 03:33:22;;;;;;;19.08;10.65;;;0.50;99.90;;;;;;5095797;28;20028;-82
2023/01/23 03:35:48;;;;;;;17.90;9.55;;;0.50;99.90;;;;;;5077553;28;20020;-84
2023/01/23 03:38:16;;;;;;;20.27;11.52;;;0.50;99.90;;;;;;5095538;28;20115;-83
2023/01/23 03:43:30;;;;;;;21.75;11.90;;;0.40;99.90;;;;;;5095635;28;20066;-82
2023/01/23 03:45:56;;;;;;;17.55;10.07;;;0.40;99.90;;;;;;5077590;28;20021;-83
2023/01/23 03:48:22;;;;;;;18.90;10.63;;;0.40;99.90;;;;;;5077587;28;20108;-83
2023/01/23 03:50:48;;;;;;;17.52;10.52;;;0.40;99.90;;;;;;5076758;28;20128;-86
2023/01/23 03:53:14;;;;;;;18.92;10.30;;;0.40;99.90;;;;;;5095089;28;20031;-86
2023/01/23 03:55:39;;;;;;;18.95;10.40;;;0.40;99.90;;;;;;5077287;28;20024;-84
2023/01/23 03:58:05;;;;;;;16.65;10.80;;;0.50;99.90;;;;;;5095301;28;20078;-83
2023/01/23 04:00:30;;;;;;;19.73;10.80;;;0.40;99.90;;;;;;5095280;28;20056;-83
2023/01/23 04:02:56;;;;;;;15.00;9.43;;;0.50;99.90;;;;;;5077118;28;20069;-83
2023/01/23 04:05:21;;;;;;;17.15;10.95;;;0.40;99.90;;;;;;5077335;28;20051;-83
2023/01/23 04:07:47;;;;;;;19.92;10.32;;;0.40;99.90;;;;;;5077299;28;20131;-84
2023/01/23 04:10:14;;;;;;;19.90;10.77;;;0.40;99.90;;;;;;5094996;28;20031;-84
2023/01/23 04:12:41;;;;;;;17.27;11.15;;;0.40;99.90;;;;;;5076875;28;20027;-83
2023/01/23 04:15:08;;;;;;;18.42;11.35;;;0.40;99.90;;;;;;5095034;28;20024;-84
2023/01/23 04:17:33;;;;;;;23.73;12.25;;;0.50;99.90;;;;;;5076496;28;20543;-84
2023/01/23 04:19:59;;;;;;;21.25;11.10;;;0.40;99.90;;;;;;5076957;28;20138;-84
2023/01/23 04:22:24;;;;;;;18.02;9.30;;;0.40;99.90;;;;;;5076436;28;20025;-83
2023/01/23 04:24:50;;;;;;;23.83;11.43;;;0.40;99.90;;;;;;5094739;28;20099;-83
2023/01/23 04:27:16;;;;;;;26.73;15.00;;;0.30;99.90;;;;;;5094855;28;20028;-83
2023/01/23 04:29:41;;;;;;;22.27;12.93;;;0.30;99.90;;;;;;5076592;28;20024;-84
2023/01/23 04:32:08;;;;;;;20.00;11.45;;;0.20;99.90;;;;;;5094623;28;20020;-83
2023/01/23 04:34:34;;;;;;;23.65;11.77;;;0.30;99.90;;;;;;5076597;28;20034;-83
2023/01/23 04:37:00;;;;;;;19.85;10.68;;;0.30;99.90;;;;;;5076287;28;20020;-84
2023/01/23 04:39:25;;;;;;;21.45;10.95;;;0.20;99.90;;;;;;5076216;28;20500;-83
2023/01/23 04:41:51;;;;;;;23.83;10.90;;;0.20;99.90;;;;;;5076514;28;20384;-83
2023/01/23 04:44:19;;;;;;;20.08;11.63;;;0.20;99.90;;;;;;5076254;28;20024;-83
2023/01/23 04:46:49;;;;;;;22.20;10.75;;;0.20;99.90;;;;;;5076086;28;20017;-84
2023/01/23 04:49:17;;;;;;;23.08;11.10;;;0.20;99.90;;;;;;5094280;28;20027;-83
2023/01/23 04:51:44;;;;;;;20.63;11.35;;;0.20;99.90;;;;;;5075998;28;20478;-83
2023/01/23 04:54:10;;;;;;;22.05;10.95;;;0.20;99.90;;;;;;5076229;28;20024;-84
2023/01/23 04:56:36;;;;;;;22.60;12.50;;;0.20;99.90;;;;;;5076445;28;20012;-83
2023/01/23 04:59:02;;;;;;;21.52;12.20;;;0.20;99.90;;;;;;5075827;28;20032;-83
2023/01/23 05:01:27;;;;;;;18.15;11.32;;;0.20;99.90;;;;;;5094191;28;20035;-83
2023/01/23 05:03:53;;;;;;;23.40;11.40;;;0.20;99.90;;;;;;5075963;28;20054;-83
2023/01/23 05:06:19;;;;;;;23.40;11.35;;;0.20;99.90;;;;;;5091042;28;20020;-84
2023/01/23 05:08:44;;;;;;;23.70;11.63;;;0.20;99.90;;;;;;5114221;28;20354;-83
2023/01/23 05:11:10;;;;;;;22.17;10.55;;;0.20;99.90;;;;;;5114242;28;20031;-82
2023/01/23 05:13:36;;;;;;;25.63;11.95;;;0.20;99.90;;;;;;5096104;28;20076;-82
2023/01/23 05:16:02;;;;;;;19.67;11.63;;;0.20;99.90;;;;;;5095822;28;20399;-82
2023/01/23 05:18:27;;;;;;;24.38;12.38;;;0.20;99.90;;;;;;5090526;28;20130;-83
2023/01/23 05:20:53;;;;;;;18.73;10.18;;;0.20;99.90;;;;;;5072254;28;20041;-83
2023/01/23 05:23:18;;;;;;;19.45;10.90;;;0.20;99.90;;;;;;5072274;28;20028;-82
2023/01/23 05:25:44;;;;;;;24.33;11.40;;;0.20;99.90;;;;;;5073522;28;20024;-81
2023/01/23 05:28:10;;;;;;;16.70;10.73;;;0.30;99.90;;;;;;5073187;28;20470;-85
2023/01/23 05:30:35;;;;;;;19.65;10.98;;;0.30;99.90;;;;;;5072312;28;20020;-83
2023/01/23 05:33:01;;;;;;;18.92;10.57;;;0.30;99.90;;;;;;5073330;28;20020;-83
2023/01/23 05:35:27;;;;;;;16.73;9.75;;;0.30;99.90;;;;;;5071726;28;20020;-83
2023/01/23 05:37:53;;;;;;;19.00;10.68;;;0.30;99.90;;;;;;5072134;28;20028;-83
2023/01/23 05:40:19;;;;;;;15.10;9.30;;;0.30;99.90;;;;;;5073259;28;20044;-83
2023/01/23 05:42:46;;;;;;;16.73;9.52;;;0.30;99.90;;;;;;5072015;28;20036;-83
2023/01/23 05:45:12;;;;;;;18.60;9.38;;;0.30;99.90;;;;;;5073200;28;20104;-82
2023/01/23 05:47:38;;;;;;;16.67;9.73;;;0.30;99.90;;;;;;5071834;28;20021;-84
2023/01/23 05:50:06;;;;;;;21.20;10.45;;;0.40;99.90;;;;;;5071765;28;20036;-83
2023/01/23 05:52:32;;;;;;;15.63;9.38;;;0.40;99.90;;;;;;5073240;28;20095;-84
2023/01/23 05:54:58;;;;;;;21.25;9.15;;;0.40;99.90;;;;;;5072102;28;20032;-83
2023/01/23 05:57:24;;;;;;;16.15;8.65;;;0.40;99.90;;;;;;5073346;28;20028;-86
2023/01/23 05:59:49;;;;;;;16.88;9.73;;;0.30;99.90;;;;;;5071806;28;20051;-82
2023/01/23 06:02:15;;;;;;;16.98;9.05;;;0.40;99.90;;;;;;5078736;28;20020;-81
2023/01/23 06:04:41;;;;;;;23.10;10.20;;;0.30;99.90;;;;;;5072175;28;20056;-82
2023/01/23 06:07:12;;;;;;;26.88;12.85;;;0.30;99.90;;;;;;5081778;28;20433;-82
2023/01/23 06:09:38;;;;;;;22.98;11.00;;;0.30;99.90;;;;;;5062247;28;20070;-84
2023/01/23 06:12:04;;;;;;;19.85;11.38;;;0.30;99.90;;;;;;5092631;28;20032;-82
2023/01/23 06:14:30;;;;;;;27.65;12.30;;;0.30;99.90;;;;;;5090070;28;20020;-82
2023/01/23 06:16:58;;;;;;;19.98;10.07;;;0.30;99.90;;;;;;5094906;28;20427;-81
2023/01/23 06:19:24;;;;;;;18.50;10.35;;;0.30;99.90;;;;;;5080329;28;20517;-81
2023/01/23 06:21:49;;;;;;;18.52;10.50;;;0.30;99.90;;;;;;5071602;28;20024;-83
2023/01/23 06:24:15;;;;;;;21.13;9.80;;;0.30;99.90;;;;;;5071037;28;20098;-81
2023/01/23 06:26:41;;;;;;;22.80;10.73;;;0.30;99.90;;;;;;5071621;28;20017;-80
2023/01/23 06:29:07;;;;;;;17.20;10.23;;;0.30;99.90;;;;;;5072795;28;20036;-83
2023/01/23 06:31:32;;;;;;;18.95;10.98;;;0.40;99.90;;;;;;5072825;28;20038;-83
2023/01/23 06:33:58;;;;;;;21.75;11.02;;;0.40;99.90;;;;;;5070761;28;20032;-83
2023/01/23 06:36:24;;;;;;;25.10;11.57;;;0.40;99.90;;;;;;5069443;28;20024;-83
2023/01/23 06:38:50;;;;;;;21.50;10.70;;;0.30;99.90;;;;;;5070457;28;20036;-82
2023/01/23 06:41:16;;;;;;;17.02;10.13;;;0.30;99.90;;;;;;5072098;28;20477;-84
2023/01/23 06:43:42;;;;;;;26.15;11.55;;;0.40;99.90;;;;;;5070999;28;20020;-84
2023/01/23 06:46:09;;;;;;;23.05;10.57;;;0.40;99.90;;;;;;5072243;28;20535;-82
2023/01/23 06:48:35;;;;;;;20.20;10.07;;;0.30;99.90;;;;;;5073842;28;20063;-82
2023/01/23 06:51:01;;;;;;;21.55;10.40;;;0.30;99.90;;;;;;5074907;28;20436;-82
2023/01/23 06:53:26;;;;;;;20.13;11.45;;;0.40;99.90;;;;;;5073699;28;20074;-82
2023/01/23 06:55:52;;;;;;;18.70;10.30;;;0.40;99.90;;;;;;5075184;28;20028;-82
2023/01/23 06:58:18;;;;;;;20.48;10.52;;;0.40;99.90;;;;;;5074886;28;20469;-82
2023/01/23 07:00:44;;;;;;;19.52;10.45;;;0.40;99.90;;;;;;5074152;28;20024;-82
2023/01/23 07:03:14;;;;;;;16.40;9.32;;;0.40;99.90;;;;;;5071959;28;20017;-82
2023/01/23 07:05:42;;;;;;;19.42;11.23;;;0.40;99.90;;;;;;5073370;28;20029;-82
2023/01/23 07:08:08;;;;;;;23.48;12.63;;;0.50;99.90;;;;;;5072604;28;20017;-83
2023/01/23 07:10:36;;;;;;;19.27;9.98;;;0.40;99.90;;;;;;5074099;28;20474;-82
2023/01/23 07:13:06;;;;;;;18.95;9.50;;;0.50;99.90;;;;;;5073894;28;20025;-83
2023/01/23 07:15:32;;;;;;;18.13;9.65;;;0.50;99.90;;;;;;5073074;28;20021;-83
2023/01/23 07:17:59;;;;;;;19.85;9.32;;;0.50;99.90;;;;;;5075685;28;20025;-82
2023/01/23 07:20:27;;;;;;;17.67;10.05;;;0.50;99.90;;;;;;5075889;28;20039;-83
2023/01/23 07:22:56;;;;;;;18.33;9.15;;;0.50;99.90;;;;;;5075767;28;20478;-83
2023/01/23 07:25:23;;;;;;;17.85;9.75;;;0.50;99.90;;;;;;5074569;28;20020;-83
2023/01/23 07:27:49;;;;;;;18.00;9.55;;;0.60;99.90;;;;;;5074475;28;20035;-82
2023/01/23 07:30:15;;;;;;;14.50;9.23;;;0.60;99.90;;;;;;5075732;28;20084;-82
2023/01/23 07:32:41;;;;;;;15.23;9.27;;;0.60;99.90;;;;;;5075538;28;20027;-82
2023/01/23 07:35:07;;;;;;;13.57;8.65;;;0.60;99.90;;;;;;5075628;28;20393;-82
2023/01/23 07:37:33;;;;;;;16.27;8.40;;;0.60;99.90;;;;;;5075507;28;20070;-82
2023/01/23 07:39:58;;;;;;;17.60;9.38;;;0.60;99.90;;;;;;5075322;28;20060;-82
2023/01/23 07:42:24;;;;;;;18.90;10.60;;;0.60;99.90;;;;;;5074098;28;20017;-82
2023/01/23 07:44:50;;;;;;;15.75;9.60;;;0.70;99.90;;;;;;5074100;28;20032;-83
2023/01/23 07:47:15;;;;;;;15.15;8.93;;;0.70;99.90;;;;;;5075339;28;20419;-82
2023/01/23 07:49:41;;;;;;;16.40;8.73;;;0.70;99.90;;;;;;5075199;28;20048;-83
2023/01/23 07:52:06;;;;;;;18.67;9.20;;;0.70;99.90;;;;;;5073924;28;20393;-83
2023/01/23 07:54:32;;;;;;;15.57;9.15;;;0.70;99.90;;;;;;5073813;28;20021;-83
2023/01/23 07:56:58;;;;;;;17.65;10.50;;;0.70;99.90;;;;;;5074432;28;20020;-83
2023/01/23 07:59:23;;;;;;;14.30;8.80;;;0.70;99.90;;;;;;5073579;28;20037;-82
2023/01/23 08:01:51;;;;;;;17.40;10.02;;;0.70;99.90;;;;;;5073738;28;20021;-82
2023/01/23 08:04:17;;;;;;;20.45;11.10;;;0.70;99.90;;;;;;5074995;28;20016;-83
2023/01/23 08:06:43;;;;;;;22.52;10.80;;;0.70;99.90;;;;;;5073602;28;20028;-83
2023/01/23 08:09:08;;;;;;;20.02;10.63;;;0.70;99.90;;;;;;5075215;28;20020;-82
2023/01/23 08:11:34;;;;;;;22.30;12.95;;;0.70;99.90;;;;;;5073681;28;20110;-82
2023/01/23 08:14:00;;;;;;;19.08;10.20;;;0.70;99.90;;;;;;5074932;28;20044;-83
2023/01/23 08:16:26;;;;;;;19.40;11.10;;;0.80;99.90;;;;;;5073852;28;20473;-82
2023/01/23 08:18:52;;;;;;;22.70;12.07;;;0.80;99.90;;;;;;5082245;28;20055;-83
2023/01/23 08:21:18;;;;;;;28.95;15.35;;;0.80;99.90;;;;;;5095124;28;20404;-83
2023/01/23 08:23:45;;;;;;;27.88;15.25;;;0.90;99.90;;;;;;5074727;28;20074;-83
2023/01/23 08:26:13;;;;;;;24.05;14.07;;;0.90;99.90;;;;;;5069647;28;20032;-82
2023/01/23 08:28:40;;;;;;;24.80;13.77;;;1.00;99.90;;;;;;5054782;28;20021;-83
2023/01/23 08:31:08;;;;;;;17.17;10.40;;;1.00;99.90;;;;;;5075832;28;20050;-82
2023/01/23 08:33:35;;;;;;;16.88;9.70;;;1.00;99.90;;;;;;5073381;28;20024;-82
2023/01/23 08:36:01;;;;;;;16.52;9.40;;;1.00;99.90;;;;;;5073856;28;20017;-82
2023/01/23 08:38:27;;;;;;;17.17;10.43;;;1.00;99.90;;;;;;5073772;28;20037;-82
2023/01/23 08:40:54;;;;;;;20.08;11.18;;;1.00;99.90;;;;;;5074122;28;20025;-82
2023/01/23 08:43:20;;;;;;;17.83;9.77;;;0.90;99.90;;;;;;5073971;28;20078;-83
2023/01/23 08:45:51;;;;;;;15.07;9.63;;;1.00;99.90;;;;;;5072586;28;20382;-83
2023/01/23 08:48:18;;;;;;;29.33;20.33;;;0.90;99.90;;;;;;5072590;28;20539;-82
2023/01/23 08:50:44;;;;;;;19.30;11.63;;;0.90;99.90;;;;;;5071925;28;20035;-82
2023/01/23 08:53:09;;;;;;;17.30;11.65;;;0.90;99.90;;;;;;5071967;28;20016;-82
2023/01/23 08:55:37;;;;;;;18.77;12.10;;;1.00;99.90;;;;;;5070832;28;20459;-82
2023/01/23 08:58:04;;;;;;;16.88;9.77;;;1.00;99.90;;;;;;5053477;28;20018;-82
2023/01/23 09:00:30;;;;;;;20.23;12.77;;;1.10;99.90;;;;;;5052324;28;20475;-82
2023/01/23 09:02:59;;;;;;;20.35;10.77;;;1.10;99.90;;;;;;5057705;28;20024;-82
2023/01/23 09:05:25;;;;;;;17.80;9.90;;;1.10;99.90;;;;;;5052389;28;20028;-82
2023/01/23 09:07:51;;;;;;;21.52;12.25;;;1.20;99.90;;;;;;5051909;28;20086;-82
2023/01/23 09:10:16;;;;;;;19.15;11.20;;;1.20;99.90;;;;;;5056800;28;20056;-83
2023/01/23 09:12:42;;;;;;;16.85;10.48;;;1.20;99.90;;;;;;5068767;28;20032;-83
2023/01/23 09:15:08;;;;;;;17.70;10.93;;;1.30;99.90;;;;;;5067567;28;20025;-82
2023/01/23 09:17:34;;;;;;;13.32;8.25;;;1.30;99.90;;;;;;5049185;28;20487;-81
2023/01/23 09:20:00;;;;;;;15.45;9.50;;;1.30;99.90;;;;;;5076451;28;20520;-82
2023/01/23 09:22:26;;;;;;;16.13;9.68;;;1.40;99.90;;;;;;5092224;28;20015;-82
2023/01/23 09:24:52;;;;;;;12.13;9.15;;;1.30;99.90;;;;;;5092451;28;20092;-80
2023/01/23 09:27:18;;;;;;;18.15;10.85;;;1.30;99.90;;;;;;5092868;28;20473;-80
2023/01/23 09:29:43;;;;;;;17.83;9.68;;;1.40;99.90;;;;;;5111146;28;20163;-80
2023/01/23 09:32:09;;;;;;;19.85;11.00;;;1.40;99.90;;;;;;5074194;28;20054;-80
2023/01/23 09:34:35;;;;;;;16.52;10.23;;;1.40;99.90;;;;;;5071146;28;20024;-79
2023/01/23 09:37:01;;;;;;;16.50;10.57;;;1.40;99.90;;;;;;5051358;28;20017;-83
2023/01/23 09:39:26;;;;;;;20.63;12.02;;;1.40;99.90;;;;;;5074630;28;20126;-84
2023/01/23 09:41:52;;;;;;;21.25;12.88;;;1.40;99.90;;;;;;5092160;28;20016;-81
2023/01/23 09:44:23;;;;;;;21.27;12.65;;;1.40;99.90;;;;;;5110016;28;20019;-81
2023/01/23 09:46:50;;;;;;;21.55;12.63;;;1.40;99.90;;;;;;5093252;28;20065;-83
2023/01/23 09:49:29;;;;;;;21.90;11.55;;;1.40;99.90;;;;;;5093700;28;20380;-81
2023/01/23 09:52:04;;;;;;;31.42;16.63;;;1.50;99.90;;;;;;5094220;28;20034;-81
2023/01/23 09:54:48;;;;;;;31.63;16.42;;;1.50;99.90;;;;;;5113444;28;20027;-80
2023/01/23 09:57:22;;;;;;;32.72;15.90;;;1.50;99.90;;;;;;5113270;28;20035;-82
2023/01/23 10:00:26;;;;;;;23.67;12.80;;;1.60;99.90;;;;;;5113409;28;20042;-83
2023/01/23 10:02:53;;;;;;;22.75;13.45;;;1.50;99.90;;;;;;5084899;28;20027;-81
2023/01/23 10:05:41;;;;;;;28.25;14.00;;;1.50;99.90;;;;;;5095270;28;20536;-82
2023/01/23 10:08:36;;;;;;;21.90;11.63;;;1.50;99.90;;;;;;5095363;28;20496;-82
2023/01/23 10:11:15;;;;;;;20.63;12.50;;;1.50;99.90;;;;;;5095421;28;20055;-81
2023/01/23 10:13:52;;;;;;;18.10;11.35;;;1.40;99.90;;;;;;5095545;28;20046;-80
2023/01/23 10:16:35;;;;;;;17.27;11.98;;;1.50;99.90;;;;;;5095540;28;20361;-82
2023/01/23 10:19:22;;;;;;;20.63;11.18;;;1.50;99.90;;;;;;5100962;28;20051;-81
2023/01/23 10:22:00;;;;;;;24.10;12.48;;;1.50;99.90;;;;;;5117444;28;20473;-83
2023/01/23 10:24:50;;;;;;;22.90;14.77;;;1.50;99.90;;;;;;5099813;28;20039;-82
2023/01/23 10:27:20;;;;;;;24.45;12.43;;;1.40;99.90;;;;;;5099117;28;20038;-81
2023/01/23 10:29:55;;;;;;;24.33;12.25;;;1.40;99.90;;;;;;5116981;28;20457;-82
2023/01/23 10:32:27;;;;;;;22.17;12.05;;;1.40;99.90;;;;;;5117103;28;20469;-82
2023/01/23 10:35:17;;;;;;;21.30;10.93;;;1.40;99.90;;;;;;5098616;28;20576;-83
2023/01/23 10:38:30;;;;;;;23.58;12.13;;;1.40;99.90;;;;;;5098882;28;20031;-83
2023/01/23 10:41:14;;;;;;;19.40;10.80;;;1.30;99.90;;;;;;5091694;28;20040;-83
2023/01/23 10:43:41;;;;;;;16.52;10.13;;;1.40;99.90;;;;;;5098600;28;20551;-82
2023/01/23 10:46:34;;;;;;;18.83;10.65;;;1.30;99.90;;;;;;5117324;28;20098;-83
2023/01/23 10:49:00;;;;;;;23.63;12.95;;;1.40;99.90;;;;;;5098731;28;20503;-83
2023/01/23 10:51:33;;;;;;;19.88;11.13;;;1.40;99.90;;;;;;5098502;28;20076;-83
2023/01/23 10:54:13;;;;;;;21.02;11.75;;;1.40;99.90;;;;;;5116769;28;20031;-82
2023/01/23 10:56:49;;;;;;;19.33;10.45;;;1.50;99.90;;;;;;5070609;28;20029;-82
2023/01/23 10:59:25;;;;;;;20.52;11.68;;;1.60;99.90;;;;;;5058066;28;20127;-83
2023/01/23 11:02:14;;;;;;;19.85;10.27;;;1.60;99.90;;;;;;5058261;28;20047;-82
2023/01/23 11:04:46;;;;;;;20.38;10.95;;;1.60;99.90;;;;;;5058753;28;20055;-83
2023/01/23 11:07:17;;;;;;;21.42;12.43;;;1.70;99.90;;;;;;5058216;28;20450;-82
2023/01/23 11:09:50;;;;;;;24.63;13.70;;;1.70;99.90;;;;;;5057747;28;20082;-84
2023/01/23 11:12:25;;;;;;;25.42;13.80;;;1.60;99.90;;;;;;5057921;28;20025;-84
2023/01/23 11:15:10;;;;;;;26.35;12.52;;;1.60;99.90;;;;;;5057689;28;20490;-83
2023/01/23 11:17:37;;;;;;;22.15;12.23;;;1.60;99.90;;;;;;5074994;28;20021;-84
2023/01/23 11:20:20;;;;;;;21.13;12.18;;;1.60;99.90;;;;;;5057506;28;20559;-82
2023/01/23 11:22:46;;;;;;;18.35;11.55;;;1.50;99.90;;;;;;5057777;28;20072;-83
2023/01/23 11:25:31;;;;;;;19.77;11.23;;;1.60;99.90;;;;;;5057553;28;20486;-83
2023/01/23 11:28:15;;;;;;;26.08;12.02;;;1.50;99.90;;;;;;5075537;28;20482;-83
2023/01/23 11:30:48;;;;;;;17.35;10.45;;;1.60;99.90;;;;;;5075844;28;20032;-83
2023/01/23 11:33:23;;;;;;;23.80;12.25;;;1.60;99.90;;;;;;5056050;28;20029;-82
2023/01/23 11:36:18;;;;;;;19.80;11.13;;;1.60;99.90;;;;;;5073593;28;20036;-82
2023/01/23 11:38:51;;;;;;;24.85;15.00;;;1.60;99.90;;;;;;5062848;28;20421;-84
2023/01/23 11:41:16;;;;;;;23.70;13.73;;;1.60;99.90;;;;;;5055148;28;20027;-82
2023/01/23 11:43:42;;;;;;;28.58;13.82;;;1.60;99.90;;;;;;5055157;28;20028;-82
2023/01/23 11:46:36;;;;;;;22.30;12.82;;;1.60;99.90;;;;;;5055698;28;20020;-81
2023/01/23 11:49:21;;;;;;;27.85;13.52;;;1.50;99.90;;;;;;5075163;28;20078;-82
2023/01/23 11:52:13;;;;;;;28.00;13.38;;;1.60;99.90;;;;;;5057653;28;20023;-82
2023/01/23 11:54:48;;;;;;;26.13;14.48;;;1.50;99.90;;;;;;5075195;28;20025;-82
2023/01/23 11:57:41;;;;;;;25.55;12.57;;;1.50;99.90;;;;;;5075099;28;20050;-83
2023/01/23 12:00:28;;;;;;;24.00;12.50;;;1.40;99.90;;;;;;5057379;28;20402;-84
2023/01/23 12:03:04;;;;;;;22.15;11.32;;;1.50;99.90;;;;;;5057315;28;20032;-83
2023/01/23 12:05:32;;;;;;;27.52;13.65;;;1.50;99.90;;;;;;5057386;28;20025;-84
2023/01/23 12:08:16;;;;;;;25.23;12.15;;;1.50;99.90;;;;;;5075067;28;20112;-82
2023/01/23 12:10:44;;;;;;;25.88;14.18;;;1.40;99.90;;;;;;5057313;28;20103;-82
2023/01/23 12:13:34;;;;;;;25.80;14.00;;;1.50;99.90;;;;;;5056851;28;20031;-83
2023/01/23 12:16:10;;;;;;;27.23;13.30;;;1.50;99.90;;;;;;5057241;28;20104;-82
2023/01/23 12:18:45;;;;;;;27.00;14.07;;;1.50;99.90;;;;;;5067800;28;20052;-82
2023/01/23 12:21:19;;;;;;;22.15;12.77;;;1.60;99.90;;;;;;5054790;28;20025;-84
2023/01/23 12:23:51;;;;;;;28.27;14.82;;;1.60;99.90;;;;;;5054790;28;20177;-81
2023/01/23 12:26:21;;;;;;;23.23;13.63;;;1.50;99.90;;;;;;5053369;28;20052;-82
2023/01/23 12:29:21;;;;;;;22.35;12.73;;;1.60;99.90;;;;;;5054242;28;20112;-82
2023/01/23 12:31:56;;;;;;;22.35;11.63;;;1.50;99.90;;;;;;5053509;28;20029;-82
2023/01/23 12:34:44;;;;;;;25.85;13.02;;;1.40;99.90;;;;;;5054382;28;20021;-82
2023/01/23 12:37:31;;;;;;;25.40;14.43;;;1.40;99.90;;;;;;5054734;28;20024;-81
2023/01/23 12:39:59;;;;;;;25.48;13.90;;;1.40;99.90;;;;;;5053244;28;20037;-83
2023/01/23 12:42:40;;;;;;;21.35;11.95;;;1.40;99.90;;;;;;5053328;28;20130;-82
2023/01/23 12:45:19;;;;;;;25.27;13.32;;;1.40;99.90;;;;;;5053411;28;20565;-84
2023/01/23 12:47:56;;;;;;;24.40;12.98;;;1.40;99.90;;;;;;5053186;28;20021;-84
2023/01/23 12:50:26;;;;;;;29.58;13.70;;;1.30;99.90;;;;;;5054037;28;20025;-83
2023/01/23 12:52:58;;;;;;;28.88;14.82;;;1.30;99.90;;;;;;5054029;28;20033;-82
2023/01/23 12:55:31;;;;;;;28.67;13.68;;;1.30;99.90;;;;;;5054170;28;20573;-84
2023/01/23 12:57:58;;;;;;;31.77;15.65;;;1.20;99.90;;;;;;5052764;28;20021;-84